South Bend, Nebraska
Current Conditions -  °F | °C
As of 2:35 PM on Friday 19 Dec 2014 (Local Time) from KMLE Reporting Station
Overcast Overcast  
Wind Chill: 26°   Ceiling: 1300
Heat Index: 33°   Visibility: 7mi
Dew Point: 30°   Wind: 9mph
Humidity: 87%   Direction: 160°SSE
Pressure: 30.16"   Gusts: NA
Location:  41°N, 96.25°W
Report Text: KMLE 192035Z AUTO 16008KT 7SM OVC013 01/M01 A3016 RMK AO2 T00081011
Loading
Personal Weather Stations






























Interactive Weather Map New forecast layout! Learn more

10-Day Weather Forecast

Advertisements
Track Severe Weather on mobile